sensor_id;sensor_type;location;lat;lon;timestamp;P1;durP1;ratioP1;P2;durP2;ratioP2
21274;SDS011;36472;52.170;20.884;2023-12-20T00:01:40;13.05;;;10.32;;
21274;SDS011;36472;52.170;20.884;2023-12-20T00:04:09;14.13;;;10.82;;
21274;SDS011;36472;52.170;20.884;2023-12-20T00:06:38;14.07;;;10.68;;
21274;SDS011;36472;52.170;20.884;2023-12-20T00:09:07;14.77;;;10.32;;
21274;SDS011;36472;52.170;20.884;2023-12-20T00:11:38;13.52;;;10.63;;
21274;SDS011;36472;52.170;20.884;2023-12-20T00:14:09;13.07;;;10.35;;
21274;SDS011;36472;52.170;20.884;2023-12-20T00:16:38;13.35;;;10.20;;
21274;SDS011;36472;52.170;20.884;2023-12-20T00:19:07;10.88;;;8.98;;
21274;SDS011;36472;52.170;20.884;2023-12-20T00:21:36;11.80;;;9.68;;
21274;SDS011;36472;52.170;20.884;2023-12-20T00:24:05;13.75;;;9.95;;
21274;SDS011;36472;52.170;20.884;2023-12-20T00:26:34;11.05;;;8.90;;
21274;SDS011;36472;52.170;20.884;2023-12-20T00:29:04;12.90;;;9.25;;
21274;SDS011;36472;52.170;20.884;2023-12-20T00:31:33;11.93;;;9.05;;
21274;SDS011;36472;52.170;20.884;2023-12-20T00:34:03;12.00;;;9.57;;
21274;SDS011;36472;52.170;20.884;2023-12-20T00:36:32;12.18;;;9.68;;
21274;SDS011;36472;52.170;20.884;2023-12-20T00:39:01;12.52;;;9.30;;
21274;SDS011;36472;52.170;20.884;2023-12-20T00:41:30;13.68;;;9.60;;
21274;SDS011;36472;52.170;20.884;2023-12-20T00:43:59;11.05;;;9.35;;
21274;SDS011;36472;52.170;20.884;2023-12-20T00:46:29;13.45;;;9.35;;
21274;SDS011;36472;52.170;20.884;2023-12-20T00:48:58;10.10;;;8.38;;
21274;SDS011;36472;52.170;20.884;2023-12-20T00:51:27;9.85;;;8.57;;
21274;SDS011;36472;52.170;20.884;2023-12-20T00:53:56;11.77;;;8.55;;
21274;SDS011;36472;52.170;20.884;2023-12-20T00:56:25;9.65;;;8.65;;
21274;SDS011;36472;52.170;20.884;2023-12-20T00:58:54;11.40;;;9.20;;
21274;SDS011;36472;52.170;20.884;2023-12-20T01:01:23;11.85;;;8.68;;
21274;SDS011;36472;52.170;20.884;2023-12-20T01:03:53;11.75;;;8.80;;
21274;SDS011;36472;52.170;20.884;2023-12-20T01:06:23;11.88;;;8.45;;
21274;SDS011;36472;52.170;20.884;2023-12-20T01:08:51;10.32;;;8.30;;
21274;SDS011;36472;52.170;20.884;2023-12-20T01:11:20;11.55;;;8.82;;
21274;SDS011;36472;52.170;20.884;2023-12-20T01:13:49;11.40;;;8.45;;
21274;SDS011;36472;52.170;20.884;2023-12-20T01:16:18;9.27;;;8.07;;
21274;SDS011;36472;52.170;20.884;2023-12-20T01:18:47;9.77;;;8.75;;
21274;SDS011;36472;52.170;20.884;2023-12-20T01:21:18;13.63;;;9.27;;
21274;SDS011;36472;52.170;20.884;2023-12-20T01:23:47;11.20;;;8.20;;
21274;SDS011;36472;52.170;20.884;2023-12-20T01:26:16;11.05;;;8.50;;
21274;SDS011;36472;52.170;20.884;2023-12-20T01:28:45;10.18;;;7.63;;
21274;SDS011;36472;52.170;20.884;2023-12-20T01:31:14;11.35;;;8.98;;
21274;SDS011;36472;52.170;20.884;2023-12-20T01:33:43;12.00;;;8.52;;
21274;SDS011;36472;52.170;20.884;2023-12-20T01:36:12;12.30;;;8.40;;
21274;SDS011;36472;52.170;20.884;2023-12-20T01:38:42;9.90;;;8.38;;
21274;SDS011;36472;52.170;20.884;2023-12-20T01:41:12;10.63;;;7.88;;
21274;SDS011;36472;52.170;20.884;2023-12-20T01:43:41;9.20;;;8.13;;
21274;SDS011;36472;52.170;20.884;2023-12-20T01:46:17;9.43;;;7.63;;
21274;SDS011;36472;52.170;20.884;2023-12-20T01:48:48;10.77;;;7.97;;
21274;SDS011;36472;52.170;20.884;2023-12-20T01:51:17;10.63;;;7.80;;
21274;SDS011;36472;52.170;20.884;2023-12-20T01:53:48;9.25;;;7.80;;
21274;SDS011;36472;52.170;20.884;2023-12-20T01:56:18;10.23;;;8.07;;
21274;SDS011;36472;52.170;20.884;2023-12-20T01:58:48;10.52;;;7.93;;
21274;SDS011;36472;52.170;20.884;2023-12-20T02:01:18;10.95;;;8.15;;
21274;SDS011;36472;52.170;20.884;2023-12-20T02:03:47;9.98;;;8.00;;
21274;SDS011;36472;52.170;20.884;2023-12-20T02:06:17;8.95;;;7.97;;
21274;SDS011;36472;52.170;20.884;2023-12-20T02:08:50;9.05;;;7.68;;
21274;SDS011;36472;52.170;20.884;2023-12-20T02:11:20;10.77;;;8.40;;
21274;SDS011;36472;52.170;20.884;2023-12-20T02:13:48;11.68;;;8.10;;
21274;SDS011;36472;52.170;20.884;2023-12-20T02:16:18;11.07;;;8.20;;
21274;SDS011;36472;52.170;20.884;2023-12-20T02:18:47;10.27;;;7.68;;
21274;SDS011;36472;52.170;20.884;2023-12-20T02:21:18;9.95;;;7.55;;
21274;SDS011;36472;52.170;20.884;2023-12-20T02:23:53;8.60;;;7.32;;
21274;SDS011;36472;52.170;20.884;2023-12-20T02:26:22;9.40;;;7.18;;
21274;SDS011;36472;52.170;20.884;2023-12-20T02:28:51;9.13;;;6.82;;
21274;SDS011;36472;52.170;20.884;2023-12-20T02:31:21;7.47;;;6.43;;
21274;SDS011;36472;52.170;20.884;2023-12-20T02:33:51;9.57;;;7.40;;
21274;SDS011;36472;52.170;20.884;2023-12-20T02:36:20;9.05;;;7.68;;
21274;SDS011;36472;52.170;20.884;2023-12-20T02:38:51;8.40;;;7.47;;
21274;SDS011;36472;52.170;20.884;2023-12-20T02:41:20;8.00;;;7.05;;
21274;SDS011;36472;52.170;20.884;2023-12-20T02:43:48;6.97;;;6.28;;
21274;SDS011;36472;52.170;20.884;2023-12-20T02:46:17;7.88;;;7.07;;
21274;SDS011;36472;52.170;20.884;2023-12-20T02:48:46;9.95;;;7.97;;
21274;SDS011;36472;52.170;20.884;2023-12-20T02:51:16;10.50;;;8.75;;
21274;SDS011;36472;52.170;20.884;2023-12-20T02:53:45;14.18;;;8.30;;
21274;SDS011;36472;52.170;20.884;2023-12-20T02:56:15;8.73;;;7.50;;
21274;SDS011;36472;52.170;20.884;2023-12-20T02:58:44;8.35;;;6.82;;
21274;SDS011;36472;52.170;20.884;2023-12-20T03:01:13;6.30;;;5.18;;
21274;SDS011;36472;52.170;20.884;2023-12-20T03:03:42;8.35;;;5.97;;
21274;SDS011;36472;52.170;20.884;2023-12-20T03:06:11;6.05;;;5.43;;
21274;SDS011;36472;52.170;20.884;2023-12-20T03:08:46;6.53;;;5.28;;
21274;SDS011;36472;52.170;20.884;2023-12-20T03:11:16;6.00;;;5.30;;
21274;SDS011;36472;52.170;20.884;2023-12-20T03:13:45;6.43;;;5.72;;
21274;SDS011;36472;52.170;20.884;2023-12-20T03:16:14;6.50;;;5.20;;
21274;SDS011;36472;52.170;20.884;2023-12-20T03:18:43;5.78;;;4.65;;
21274;SDS011;36472;52.170;20.884;2023-12-20T03:21:12;5.00;;;4.43;;
21274;SDS011;36472;52.170;20.884;2023-12-20T03:23:41;4.80;;;4.30;;
21274;SDS011;36472;52.170;20.884;2023-12-20T03:26:11;5.75;;;5.03;;
21274;SDS011;36472;52.170;20.884;2023-12-20T03:28:41;5.03;;;4.53;;
21274;SDS011;36472;52.170;20.884;2023-12-20T03:31:10;6.68;;;4.68;;
21274;SDS011;36472;52.170;20.884;2023-12-20T03:33:39;5.57;;;4.80;;
21274;SDS011;36472;52.170;20.884;2023-12-20T03:36:09;6.03;;;4.93;;
21274;SDS011;36472;52.170;20.884;2023-12-20T03:38:37;6.13;;;5.05;;
21274;SDS011;36472;52.170;20.884;2023-12-20T03:41:07;6.70;;;5.22;;
21274;SDS011;36472;52.170;20.884;2023-12-20T03:43:35;6.03;;;4.88;;
21274;SDS011;36472;52.170;20.884;2023-12-20T03:46:06;5.95;;;5.25;;
21274;SDS011;36472;52.170;20.884;2023-12-20T03:48:36;5.65;;;4.97;;
21274;SDS011;36472;52.170;20.884;2023-12-20T03:51:05;4.75;;;4.35;;
21274;SDS011;36472;52.170;20.884;2023-12-20T03:53:34;5.78;;;4.35;;
21274;SDS011;36472;52.170;20.884;2023-12-20T03:56:03;5.13;;;4.63;;
21274;SDS011;36472;52.170;20.884;2023-12-20T03:58:33;5.38;;;4.55;;
21274;SDS011;36472;52.170;20.884;2023-12-20T04:01:02;5.07;;;4.57;;
21274;SDS011;36472;52.170;20.884;2023-12-20T04:03:32;5.85;;;4.70;;
21274;SDS011;36472;52.170;20.884;2023-12-20T04:06:01;5.65;;;4.80;;
21274;SDS011;36472;52.170;20.884;2023-12-20T04:08:31;5.82;;;5.15;;
21274;SDS011;36472;52.170;20.884;2023-12-20T04:11:00;5.07;;;4.53;;
21274;SDS011;36472;52.170;20.884;2023-12-20T04:13:29;4.82;;;4.43;;
21274;SDS011;36472;52.170;20.884;2023-12-20T04:15:58;6.68;;;5.00;;
21274;SDS011;36472;52.170;20.884;2023-12-20T04:18:27;6.25;;;5.20;;
21274;SDS011;36472;52.170;20.884;2023-12-20T04:20:57;6.93;;;5.25;;
21274;SDS011;36472;52.170;20.884;2023-12-20T04:23:26;5.63;;;4.90;;
21274;SDS011;36472;52.170;20.884;2023-12-20T04:25:55;7.25;;;5.30;;
21274;SDS011;36472;52.170;20.884;2023-12-20T04:28:24;5.97;;;5.10;;
21274;SDS011;36472;52.170;20.884;2023-12-20T04:30:53;6.03;;;5.15;;
21274;SDS011;36472;52.170;20.884;2023-12-20T04:33:22;5.50;;;4.85;;
21274;SDS011;36472;52.170;20.884;2023-12-20T04:35:51;6.53;;;5.10;;
21274;SDS011;36472;52.170;20.884;2023-12-20T04:38:22;6.40;;;5.32;;
21274;SDS011;36472;52.170;20.884;2023-12-20T04:40:51;6.90;;;5.22;;
21274;SDS011;36472;52.170;20.884;2023-12-20T04:43:19;5.70;;;5.10;;
21274;SDS011;36472;52.170;20.884;2023-12-20T04:45:49;5.85;;;5.15;;
21274;SDS011;36472;52.170;20.884;2023-12-20T04:48:17;5.47;;;4.97;;
21274;SDS011;36472;52.170;20.884;2023-12-20T04:50:47;5.20;;;4.65;;
21274;SDS011;36472;52.170;20.884;2023-12-20T04:53:15;5.95;;;5.32;;
21274;SDS011;36472;52.170;20.884;2023-12-20T04:55:46;6.53;;;5.38;;
21274;SDS011;36472;52.170;20.884;2023-12-20T04:58:15;7.20;;;5.57;;
21274;SDS011;36472;52.170;20.884;2023-12-20T05:00:44;7.25;;;5.40;;
21274;SDS011;36472;52.170;20.884;2023-12-20T05:03:13;5.70;;;5.00;;
21274;SDS011;36472;52.170;20.884;2023-12-20T05:05:42;7.32;;;5.72;;
21274;SDS011;36472;52.170;20.884;2023-12-20T05:12:45;6.72;;;5.72;;
21274;SDS011;36472;52.170;20.884;2023-12-20T05:15:14;5.78;;;5.22;;
21274;SDS011;36472;52.170;20.884;2023-12-20T05:17:43;7.20;;;5.78;;
21274;SDS011;36472;52.170;20.884;2023-12-20T05:20:13;7.13;;;6.43;;
21274;SDS011;36472;52.170;20.884;2023-12-20T05:22:42;6.72;;;6.05;;
21274;SDS011;36472;52.170;20.884;2023-12-20T05:25:12;7.53;;;6.75;;
21274;SDS011;36472;52.170;20.884;2023-12-20T05:27:41;6.68;;;5.82;;
21274;SDS011;36472;52.170;20.884;2023-12-20T05:30:12;6.57;;;5.90;;
21274;SDS011;36472;52.170;20.884;2023-12-20T05:32:42;7.43;;;6.00;;
21274;SDS011;36472;52.170;20.884;2023-12-20T05:35:11;8.55;;;6.38;;
21274;SDS011;36472;52.170;20.884;2023-12-20T05:37:40;6.25;;;5.63;;
21274;SDS011;36472;52.170;20.884;2023-12-20T05:40:09;6.78;;;6.07;;
21274;SDS011;36472;52.170;20.884;2023-12-20T05:42:39;6.88;;;5.85;;
21274;SDS011;36472;52.170;20.884;2023-12-20T05:45:08;6.28;;;5.53;;
21274;SDS011;36472;52.170;20.884;2023-12-20T05:47:39;6.35;;;5.50;;
21274;SDS011;36472;52.170;20.884;2023-12-20T05:50:08;6.53;;;5.80;;
21274;SDS011;36472;52.170;20.884;2023-12-20T05:52:37;5.97;;;5.05;;
21274;SDS011;36472;52.170;20.884;2023-12-20T05:55:06;6.68;;;5.80;;
21274;SDS011;36472;52.170;20.884;2023-12-20T05:57:36;6.38;;;5.78;;
21274;SDS011;36472;52.170;20.884;2023-12-20T06:00:05;6.38;;;5.57;;
21274;SDS011;36472;52.170;20.884;2023-12-20T06:02:41;6.55;;;5.35;;
21274;SDS011;36472;52.170;20.884;2023-12-20T06:05:11;6.28;;;5.60;;
21274;SDS011;36472;52.170;20.884;2023-12-20T06:07:40;6.93;;;5.60;;
21274;SDS011;36472;52.170;20.884;2023-12-20T06:10:10;8.40;;;6.32;;
21274;SDS011;36472;52.170;20.884;2023-12-20T06:12:39;5.70;;;5.10;;
21274;SDS011;36472;52.170;20.884;2023-12-20T06:15:08;6.43;;;5.72;;
21274;SDS011;36472;52.170;20.884;2023-12-20T06:17:38;7.65;;;6.07;;
21274;SDS011;36472;52.170;20.884;2023-12-20T06:20:09;8.13;;;5.95;;
21274;SDS011;36472;52.170;20.884;2023-12-20T06:22:39;7.25;;;6.05;;
21274;SDS011;36472;52.170;20.884;2023-12-20T06:25:08;6.28;;;5.63;;
21274;SDS011;36472;52.170;20.884;2023-12-20T06:27:37;7.47;;;6.38;;
21274;SDS011;36472;52.170;20.884;2023-12-20T06:30:07;7.38;;;6.22;;
21274;SDS011;36472;52.170;20.884;2023-12-20T06:32:37;6.70;;;5.82;;
21274;SDS011;36472;52.170;20.884;2023-12-20T06:35:06;6.32;;;5.55;;
21274;SDS011;36472;52.170;20.884;2023-12-20T06:37:37;6.85;;;6.15;;
21274;SDS011;36472;52.170;20.884;2023-12-20T06:40:10;6.50;;;5.90;;
21274;SDS011;36472;52.170;20.884;2023-12-20T06:42:45;6.80;;;6.10;;
21274;SDS011;36472;52.170;20.884;2023-12-20T06:45:31;7.50;;;6.72;;
21274;SDS011;36472;52.170;20.884;2023-12-20T06:48:00;8.07;;;6.72;;
21274;SDS011;36472;52.170;20.884;2023-12-20T06:50:30;7.97;;;6.70;;
21274;SDS011;36472;52.170;20.884;2023-12-20T06:52:59;8.00;;;6.57;;
21274;SDS011;36472;52.170;20.884;2023-12-20T06:55:34;8.18;;;6.53;;
21274;SDS011;36472;52.170;20.884;2023-12-20T06:58:05;9.02;;;6.72;;
21274;SDS011;36472;52.170;20.884;2023-12-20T07:00:34;7.47;;;6.20;;
21274;SDS011;36472;52.170;20.884;2023-12-20T07:03:03;7.03;;;6.30;;
21274;SDS011;36472;52.170;20.884;2023-12-20T07:05:34;7.68;;;6.85;;
21274;SDS011;36472;52.170;20.884;2023-12-20T07:08:03;7.22;;;6.35;;
21274;SDS011;36472;52.170;20.884;2023-12-20T07:10:33;9.50;;;7.20;;
21274;SDS011;36472;52.170;20.884;2023-12-20T07:13:03;8.70;;;7.32;;
21274;SDS011;36472;52.170;20.884;2023-12-20T07:15:32;9.30;;;6.82;;
21274;SDS011;36472;52.170;20.884;2023-12-20T07:18:01;8.63;;;6.55;;
21274;SDS011;36472;52.170;20.884;2023-12-20T07:20:29;8.68;;;7.10;;
21274;SDS011;36472;52.170;20.884;2023-12-20T07:23:00;8.82;;;6.88;;
21274;SDS011;36472;52.170;20.884;2023-12-20T07:25:28;8.57;;;6.63;;
21274;SDS011;36472;52.170;20.884;2023-12-20T07:28:00;7.78;;;6.80;;
21274;SDS011;36472;52.170;20.884;2023-12-20T07:30:29;7.15;;;6.18;;
21274;SDS011;36472;52.170;20.884;2023-12-20T07:32:58;7.20;;;6.00;;
21274;SDS011;36472;52.170;20.884;2023-12-20T07:35:28;7.65;;;6.25;;
21274;SDS011;36472;52.170;20.884;2023-12-20T07:37:57;6.78;;;6.07;;
21274;SDS011;36472;52.170;20.884;2023-12-20T07:40:29;6.28;;;5.68;;
21274;SDS011;36472;52.170;20.884;2023-12-20T07:42:58;6.82;;;6.13;;
21274;SDS011;36472;52.170;20.884;2023-12-20T07:49:59;7.32;;;5.90;;
21274;SDS011;36472;52.170;20.884;2023-12-20T07:52:28;6.22;;;5.63;;
21274;SDS011;36472;52.170;20.884;2023-12-20T07:54:59;6.80;;;6.10;;
21274;SDS011;36472;52.170;20.884;2023-12-20T07:57:29;7.00;;;5.63;;
21274;SDS011;36472;52.170;20.884;2023-12-20T07:59:58;6.97;;;5.65;;
21274;SDS011;36472;52.170;20.884;2023-12-20T08:02:30;6.15;;;5.50;;
21274;SDS011;36472;52.170;20.884;2023-12-20T08:04:59;6.35;;;5.18;;
21274;SDS011;36472;52.170;20.884;2023-12-20T08:07:28;6.32;;;5.15;;
21274;SDS011;36472;52.170;20.884;2023-12-20T08:09:57;6.03;;;5.40;;
21274;SDS011;36472;52.170;20.884;2023-12-20T08:12:28;6.43;;;5.38;;
21274;SDS011;36472;52.170;20.884;2023-12-20T08:14:57;7.05;;;5.80;;
21274;SDS011;36472;52.170;20.884;2023-12-20T08:17:25;6.05;;;5.30;;
21274;SDS011;36472;52.170;20.884;2023-12-20T08:19:55;5.70;;;5.10;;
21274;SDS011;36472;52.170;20.884;2023-12-20T08:22:24;6.45;;;5.78;;
21274;SDS011;36472;52.170;20.884;2023-12-20T08:24:54;6.25;;;5.45;;
21274;SDS011;36472;52.170;20.884;2023-12-20T08:27:24;5.82;;;4.80;;
21274;SDS011;36472;52.170;20.884;2023-12-20T08:29:53;6.28;;;4.93;;
21274;SDS011;36472;52.170;20.884;2023-12-20T08:32:24;5.85;;;4.90;;
21274;SDS011;36472;52.170;20.884;2023-12-20T08:34:54;6.03;;;5.32;;
21274;SDS011;36472;52.170;20.884;2023-12-20T08:37:23;5.93;;;5.10;;
21274;SDS011;36472;52.170;20.884;2023-12-20T08:39:53;6.20;;;5.00;;
21274;SDS011;36472;52.170;20.884;2023-12-20T08:42:21;6.13;;;5.05;;
21274;SDS011;36472;52.170;20.884;2023-12-20T08:44:58;8.23;;;5.35;;
21274;SDS011;36472;52.170;20.884;2023-12-20T08:47:27;7.30;;;5.45;;
21274;SDS011;36472;52.170;20.884;2023-12-20T08:49:57;6.43;;;5.45;;
21274;SDS011;36472;52.170;20.884;2023-12-20T08:52:27;5.50;;;4.97;;
21274;SDS011;36472;52.170;20.884;2023-12-20T08:54:57;6.20;;;5.25;;
21274;SDS011;36472;52.170;20.884;2023-12-20T08:57:27;5.72;;;5.10;;
21274;SDS011;36472;52.170;20.884;2023-12-20T08:59:56;6.35;;;5.68;;
21274;SDS011;36472;52.170;20.884;2023-12-20T09:06:59;5.95;;;5.03;;
21274;SDS011;36472;52.170;20.884;2023-12-20T09:09:29;5.78;;;5.18;;
21274;SDS011;36472;52.170;20.884;2023-12-20T09:11:59;5.10;;;4.45;;
21274;SDS011;36472;52.170;20.884;2023-12-20T09:14:29;6.53;;;4.45;;
21274;SDS011;36472;52.170;20.884;2023-12-20T09:16:59;5.25;;;4.32;;
21274;SDS011;36472;52.170;20.884;2023-12-20T09:19:28;6.50;;;5.80;;
21274;SDS011;36472;52.170;20.884;2023-12-20T09:21:57;6.93;;;5.80;;
21274;SDS011;36472;52.170;20.884;2023-12-20T09:24:26;6.90;;;6.20;;
21274;SDS011;36472;52.170;20.884;2023-12-20T09:26:55;5.75;;;5.13;;
21274;SDS011;36472;52.170;20.884;2023-12-20T09:29:24;7.35;;;6.45;;
21274;SDS011;36472;52.170;20.884;2023-12-20T09:31:54;8.45;;;7.38;;
21274;SDS011;36472;52.170;20.884;2023-12-20T09:34:24;9.73;;;8.38;;
21274;SDS011;36472;52.170;20.884;2023-12-20T09:36:54;9.18;;;8.00;;
21274;SDS011;36472;52.170;20.884;2023-12-20T09:39:23;9.32;;;7.40;;
21274;SDS011;36472;52.170;20.884;2023-12-20T09:41:57;7.28;;;6.47;;
21274;SDS011;36472;52.170;20.884;2023-12-20T09:44:29;9.10;;;6.22;;
21274;SDS011;36472;52.170;20.884;2023-12-20T09:47:01;7.00;;;5.75;;
21274;SDS011;36472;52.170;20.884;2023-12-20T09:49:32;6.95;;;5.95;;
21274;SDS011;36472;52.170;20.884;2023-12-20T09:52:02;6.10;;;5.25;;
21274;SDS011;36472;52.170;20.884;2023-12-20T09:54:35;6.43;;;5.28;;
21274;SDS011;36472;52.170;20.884;2023-12-20T09:57:04;5.55;;;4.70;;
21274;SDS011;36472;52.170;20.884;2023-12-20T09:59:33;5.80;;;4.40;;
21274;SDS011;36472;52.170;20.884;2023-12-20T10:02:04;5.53;;;4.13;;
21274;SDS011;36472;52.170;20.884;2023-12-20T10:04:44;6.57;;;4.80;;
21274;SDS011;36472;52.170;20.884;2023-12-20T10:07:16;6.78;;;5.28;;
21274;SDS011;36472;52.170;20.884;2023-12-20T10:09:45;6.82;;;5.47;;
21274;SDS011;36472;52.170;20.884;2023-12-20T10:12:15;6.05;;;4.95;;
21274;SDS011;36472;52.170;20.884;2023-12-20T10:14:44;5.97;;;5.35;;
21274;SDS011;36472;52.170;20.884;2023-12-20T10:17:15;6.47;;;5.10;;
21274;SDS011;36472;52.170;20.884;2023-12-20T10:19:44;5.30;;;4.70;;
21274;SDS011;36472;52.170;20.884;2023-12-20T10:22:13;4.65;;;4.22;;
21274;SDS011;36472;52.170;20.884;2023-12-20T10:24:43;5.32;;;4.30;;
21274;SDS011;36472;52.170;20.884;2023-12-20T10:27:14;4.63;;;4.20;;
21274;SDS011;36472;52.170;20.884;2023-12-20T10:29:47;5.60;;;4.55;;
21274;SDS011;36472;52.170;20.884;2023-12-20T10:32:24;6.90;;;4.43;;
21274;SDS011;36472;52.170;20.884;2023-12-20T10:34:55;4.53;;;4.07;;
21274;SDS011;36472;52.170;20.884;2023-12-20T10:37:24;4.65;;;4.25;;
21274;SDS011;36472;52.170;20.884;2023-12-20T10:39:54;5.18;;;4.68;;
21274;SDS011;36472;52.170;20.884;2023-12-20T10:42:26;4.85;;;4.13;;
21274;SDS011;36472;52.170;20.884;2023-12-20T10:44:56;5.30;;;4.70;;
21274;SDS011;36472;52.170;20.884;2023-12-20T10:47:29;4.85;;;4.35;;
21274;SDS011;36472;52.170;20.884;2023-12-20T10:50:00;5.18;;;4.68;;
21274;SDS011;36472;52.170;20.884;2023-12-20T10:52:33;4.82;;;4.43;;
21274;SDS011;36472;52.170;20.884;2023-12-20T10:55:05;6.55;;;4.88;;
21274;SDS011;36472;52.170;20.884;2023-12-20T10:57:36;6.05;;;5.05;;
21274;SDS011;36472;52.170;20.884;2023-12-20T11:00:05;5.15;;;4.57;;
21274;SDS011;36472;52.170;20.884;2023-12-20T11:02:44;5.80;;;5.00;;
21274;SDS011;36472;52.170;20.884;2023-12-20T11:05:18;5.55;;;4.95;;
21274;SDS011;36472;52.170;20.884;2023-12-20T11:07:58;5.57;;;4.32;;
21274;SDS011;36472;52.170;20.884;2023-12-20T11:10:37;5.38;;;4.47;;
21274;SDS011;36472;52.170;20.884;2023-12-20T11:13:20;5.47;;;4.72;;
21274;SDS011;36472;52.170;20.884;2023-12-20T11:15:57;5.43;;;4.93;;
21274;SDS011;36472;52.170;20.884;2023-12-20T11:18:30;5.43;;;4.93;;
21274;SDS011;36472;52.170;20.884;2023-12-20T11:21:00;6.85;;;5.30;;
21274;SDS011;36472;52.170;20.884;2023-12-20T11:23:31;5.47;;;4.80;;
21274;SDS011;36472;52.170;20.884;2023-12-20T11:26:02;5.20;;;4.70;;
21274;SDS011;36472;52.170;20.884;2023-12-20T11:28:31;7.40;;;5.70;;
21274;SDS011;36472;52.170;20.884;2023-12-20T11:31:01;6.53;;;5.45;;
21274;SDS011;36472;52.170;20.884;2023-12-20T11:33:35;5.97;;;5.05;;
21274;SDS011;36472;52.170;20.884;2023-12-20T11:36:12;6.53;;;5.38;;
21274;SDS011;36472;52.170;20.884;2023-12-20T11:38:55;6.60;;;5.75;;
21274;SDS011;36472;52.170;20.884;2023-12-20T11:41:26;6.00;;;5.13;;
21274;SDS011;36472;52.170;20.884;2023-12-20T11:43:56;5.60;;;5.10;;
21274;SDS011;36472;52.170;20.884;2023-12-20T11:46:27;5.53;;;5.00;;
21274;SDS011;36472;52.170;20.884;2023-12-20T11:48:58;5.60;;;5.10;;
21274;SDS011;36472;52.170;20.884;2023-12-20T11:51:30;5.25;;;4.75;;
21274;SDS011;36472;52.170;20.884;2023-12-20T11:53:59;6.85;;;5.35;;
21274;SDS011;36472;52.170;20.884;2023-12-20T11:56:28;6.43;;;5.40;;
21274;SDS011;36472;52.170;20.884;2023-12-20T11:58:57;5.68;;;5.13;;
21274;SDS011;36472;52.170;20.884;2023-12-20T12:01:48;5.57;;;4.95;;
21274;SDS011;36472;52.170;20.884;2023-12-20T12:04:20;5.55;;;5.05;;
21274;SDS011;36472;52.170;20.884;2023-12-20T12:06:49;5.35;;;4.85;;
21274;SDS011;36472;52.170;20.884;2023-12-20T12:09:18;5.72;;;4.82;;
21274;SDS011;36472;52.170;20.884;2023-12-20T12:11:47;4.75;;;4.25;;
21274;SDS011;36472;52.170;20.884;2023-12-20T12:14:17;5.65;;;4.63;;
21274;SDS011;36472;52.170;20.884;2023-12-20T12:16:47;5.35;;;4.60;;
21274;SDS011;36472;52.170;20.884;2023-12-20T12:19:22;6.15;;;4.82;;
21274;SDS011;36472;52.170;20.884;2023-12-20T12:22:03;5.25;;;4.63;;
21274;SDS011;36472;52.170;20.884;2023-12-20T12:24:34;4.75;;;4.35;;
21274;SDS011;36472;52.170;20.884;2023-12-20T12:27:05;5.32;;;4.57;;
21274;SDS011;36472;52.170;20.884;2023-12-20T12:29:35;5.20;;;4.70;;
21274;SDS011;36472;52.170;20.884;2023-12-20T12:32:04;5.40;;;4.78;;
21274;SDS011;36472;52.170;20.884;2023-12-20T12:34:36;5.50;;;4.88;;
21274;SDS011;36472;52.170;20.884;2023-12-20T12:37:06;6.50;;;5.20;;
21274;SDS011;36472;52.170;20.884;2023-12-20T12:39:35;7.10;;;5.22;;
21274;SDS011;36472;52.170;20.884;2023-12-20T12:42:04;6.40;;;5.40;;
21274;SDS011;36472;52.170;20.884;2023-12-20T12:44:33;6.13;;;5.50;;
21274;SDS011;36472;52.170;20.884;2023-12-20T12:47:02;6.88;;;6.18;;
21274;SDS011;36472;52.170;20.884;2023-12-20T12:49:32;5.53;;;4.85;;
21274;SDS011;36472;52.170;20.884;2023-12-20T12:52:03;7.47;;;5.78;;
21274;SDS011;36472;52.170;20.884;2023-12-20T12:54:33;6.65;;;5.07;;
21274;SDS011;36472;52.170;20.884;2023-12-20T12:57:03;6.88;;;5.40;;
21274;SDS011;36472;52.170;20.884;2023-12-20T12:59:33;7.20;;;5.63;;
21274;SDS011;36472;52.170;20.884;2023-12-20T13:02:07;6.53;;;5.35;;
21274;SDS011;36472;52.170;20.884;2023-12-20T13:09:10;8.02;;;5.45;;
21274;SDS011;36472;52.170;20.884;2023-12-20T13:16:11;8.52;;;5.82;;
21274;SDS011;36472;52.170;20.884;2023-12-20T13:18:41;9.20;;;5.85;;
21274;SDS011;36472;52.170;20.884;2023-12-20T13:25:45;7.65;;;5.72;;
21274;SDS011;36472;52.170;20.884;2023-12-20T13:37:22;8.90;;;5.63;;
21274;SDS011;36472;52.170;20.884;2023-12-20T13:44:25;6.65;;;5.53;;
21274;SDS011;36472;52.170;20.884;2023-12-20T13:46:54;6.35;;;4.82;;
21274;SDS011;36472;52.170;20.884;2023-12-20T13:49:24;6.13;;;5.25;;
21274;SDS011;36472;52.170;20.884;2023-12-20T13:51:53;7.38;;;5.63;;
21274;SDS011;36472;52.170;20.884;2023-12-20T13:54:23;8.75;;;6.05;;
21274;SDS011;36472;52.170;20.884;2023-12-20T13:56:52;7.75;;;5.82;;
21274;SDS011;36472;52.170;20.884;2023-12-20T13:59:39;9.48;;;6.63;;
21274;SDS011;36472;52.170;20.884;2023-12-20T14:02:08;8.85;;;6.88;;
21274;SDS011;36472;52.170;20.884;2023-12-20T14:04:37;8.68;;;6.70;;
21274;SDS011;36472;52.170;20.884;2023-12-20T14:07:10;8.43;;;6.63;;
21274;SDS011;36472;52.170;20.884;2023-12-20T14:09:40;9.02;;;6.07;;
21274;SDS011;36472;52.170;20.884;2023-12-20T14:12:13;10.13;;;6.68;;
21274;SDS011;36472;52.170;20.884;2023-12-20T14:14:45;9.13;;;6.30;;
21274;SDS011;36472;52.170;20.884;2023-12-20T14:17:14;9.77;;;6.00;;
21274;SDS011;36472;52.170;20.884;2023-12-20T14:19:43;7.65;;;5.57;;
21274;SDS011;36472;52.170;20.884;2023-12-20T14:22:12;8.00;;;5.70;;
21274;SDS011;36472;52.170;20.884;2023-12-20T14:24:44;8.00;;;5.22;;
21274;SDS011;36472;52.170;20.884;2023-12-20T14:27:13;7.75;;;5.15;;
21274;SDS011;36472;52.170;20.884;2023-12-20T14:29:42;6.25;;;5.20;;
21274;SDS011;36472;52.170;20.884;2023-12-20T14:32:12;5.82;;;5.22;;
21274;SDS011;36472;52.170;20.884;2023-12-20T14:39:15;7.18;;;5.30;;
21274;SDS011;36472;52.170;20.884;2023-12-20T14:41:44;9.10;;;5.70;;
21274;SDS011;36472;52.170;20.884;2023-12-20T14:44:13;8.60;;;5.80;;
21274;SDS011;36472;52.170;20.884;2023-12-20T14:46:43;8.43;;;5.43;;
21274;SDS011;36472;52.170;20.884;2023-12-20T14:49:14;8.55;;;5.93;;
21274;SDS011;36472;52.170;20.884;2023-12-20T14:51:43;6.72;;;5.28;;
21274;SDS011;36472;52.170;20.884;2023-12-20T14:54:15;6.53;;;5.13;;
21274;SDS011;36472;52.170;20.884;2023-12-20T14:56:43;8.32;;;4.93;;
21274;SDS011;36472;52.170;20.884;2023-12-20T14:59:13;7.25;;;5.30;;
21274;SDS011;36472;52.170;20.884;2023-12-20T15:01:42;9.13;;;5.85;;
21274;SDS011;36472;52.170;20.884;2023-12-20T15:04:13;10.48;;;6.68;;
21274;SDS011;36472;52.170;20.884;2023-12-20T15:06:43;10.05;;;6.43;;
21274;SDS011;36472;52.170;20.884;2023-12-20T15:09:12;10.32;;;6.15;;
21274;SDS011;36472;52.170;20.884;2023-12-20T15:11:41;9.90;;;6.68;;
21274;SDS011;36472;52.170;20.884;2023-12-20T15:14:10;8.55;;;5.68;;
21274;SDS011;36472;52.170;20.884;2023-12-20T15:16:42;7.70;;;6.00;;
21274;SDS011;36472;52.170;20.884;2023-12-20T15:19:11;9.40;;;5.53;;
21274;SDS011;36472;52.170;20.884;2023-12-20T15:21:42;9.00;;;5.70;;
21274;SDS011;36472;52.170;20.884;2023-12-20T15:24:14;8.13;;;4.82;;
21274;SDS011;36472;52.170;20.884;2023-12-20T15:26:46;8.55;;;6.05;;
21274;SDS011;36472;52.170;20.884;2023-12-20T15:29:15;8.40;;;6.25;;
21274;SDS011;36472;52.170;20.884;2023-12-20T15:31:45;8.68;;;5.93;;
21274;SDS011;36472;52.170;20.884;2023-12-20T15:34:17;8.38;;;5.53;;
21274;SDS011;36472;52.170;20.884;2023-12-20T15:36:46;6.45;;;5.30;;